Ana Sayfa
METAR-TAF:

METAR-TAF

Havaalanları :

Killeen, Teksas, Amerika Birleşik Devletleri

Enlem: 31-05N, Boylam: 097-41W, yükseklik: 258 m

Güncel hava durumu gözlemi

Rapor saat 05:56 UTC de 43 dakika önce yapıldı.
Rüzgar güneydan 8 kt
Sıcaklık 28°C
Nem 70%
Basınç 1015 hPa
Görüş mesafesi: 16.1 km
Açık gökyüzü

METAR: KILE 160556Z AUTO 18008KT 10SM CLR 28/22 A2996 RMK AO2 SLP129 T02780217 10356 20278 403670239 51004

Saat: 01:39 (06:39 UTC)


TAF: eksik

4.000'den fazla havaalanı için hava durumu gözlemleri ve tahminleri (METAR ve TAF raporları).

Kullanılabilir istasyonlar harita üzerinde sarı ve kırmızı noktalarla gösterilir.

İstasyonun adını görmek için fareyi noktanın üzerinde gezdirin.

Sonrasında hava gözlem ve tahminlerini görmek için tıklayın.

Haritayı değiştirmek için: yaklaştırmak için siyah artı işaretli yeşil düğmeye ve uzaklaştırmak için de eksi işaretli düğmeye hızla tıklayın; bitişik haritalar için yeşil okları kullanın.


METAR-TAF: